KACQ

Waseca Municipal Airport

Waseca, Minnesota, USA
METAR KACQ 190035Z AUTO 18012KT 10SM CLR M05/M09 A3003 RMK AO2
Observed Flight Rules
Nov-19 @ 00:35 UTC (24 minutes ago) Visual Flight Rules
Wind Visibility Clouds
180° at 12 knots 10 miles
  • Clear skies
Temperatures Readings
Current -5°C / 23°F
Dewpoint -9°C / 16°F
Humidity 74%
Altimeter 30.03" Hg
Pressure 1017 hPa
Elevation 343
METAR KACQ 190035Z AUTO 18012KT 10SM CLR M05/M09 A3003 RMK AO2
Observed Flight Rules
Nov-19 @ 00:35 UTC
(24 minutes ago)
VFR
Wind Visibility
180° at 12 knots 10 miles
Clouds
  • Clear skies
Temperature Dewpoint
-5°C / 23°F -9°C / 16°F
Humidity Altimeter Pressure
74% 30.03" Hg 1017 hPa